createdAt,value
2023-11-10T00:04:31.984Z,64.16
2023-11-10T00:09:39.563Z,64.26
2023-11-10T00:14:47.448Z,64.36
2023-11-10T00:19:55.195Z,64.33
2023-11-10T00:25:04.715Z,64.57
2023-11-10T00:30:14.214Z,64.40
2023-11-10T00:35:21.637Z,64.58
2023-11-10T00:40:28.790Z,64.64
2023-11-10T00:45:36.544Z,64.78
2023-11-10T00:50:44.076Z,64.60
2023-11-10T00:55:53.156Z,64.67
2023-11-10T01:01:00.451Z,64.55
2023-11-10T01:06:07.922Z,64.94
2023-11-10T01:11:16.001Z,64.98
2023-11-10T01:16:25.620Z,64.95
2023-11-10T01:21:33.613Z,65.00
2023-11-10T01:26:41.387Z,65.20
2023-11-10T01:31:49.238Z,65.12
2023-11-10T01:36:56.681Z,65.18
2023-11-10T01:42:06.008Z,65.30
2023-11-10T01:47:14.617Z,65.09
2023-11-10T01:52:22.838Z,65.28
2023-11-10T01:57:30.569Z,65.18
2023-11-10T02:02:38.467Z,65.29
2023-11-10T02:07:46.120Z,65.45
2023-11-10T02:12:58.072Z,65.41
2023-11-10T02:18:05.374Z,65.35
2023-11-10T02:23:12.876Z,65.47
2023-11-10T02:28:20.939Z,65.65
2023-11-10T02:33:28.178Z,65.73
2023-11-10T02:38:35.591Z,65.71
2023-11-10T02:43:43.594Z,65.73
2023-11-10T02:48:51.229Z,65.79
2023-11-10T02:53:59.017Z,65.85
2023-11-10T02:59:06.475Z,66.00
2023-11-10T03:04:14.441Z,65.75
2023-11-10T03:09:24.587Z,65.81
2023-11-10T03:14:32.401Z,65.82
2023-11-10T03:19:39.961Z,65.86
2023-11-10T03:24:49.439Z,65.82
2023-11-10T03:29:57.114Z,65.89
2023-11-10T03:35:04.791Z,65.82
2023-11-10T03:40:16.507Z,65.90
2023-11-10T03:45:24.193Z,65.87
2023-11-10T03:50:31.921Z,66.04
2023-11-10T03:55:39.107Z,65.88
2023-11-10T04:00:49.259Z,65.86
2023-11-10T04:05:57.456Z,65.93
2023-11-10T04:11:05.681Z,65.82
2023-11-10T04:16:19.481Z,65.85
2023-11-10T04:21:28.581Z,65.94
2023-11-10T04:26:36.187Z,65.89
2023-11-10T04:31:44.261Z,65.79
2023-11-10T04:36:53.333Z,65.82
2023-11-10T04:42:01.814Z,65.82
2023-11-10T04:47:09.268Z,65.86
2023-11-10T04:52:16.948Z,65.68
2023-11-10T04:57:25.879Z,65.82
2023-11-10T05:02:33.413Z,65.69
2023-11-10T05:07:40.864Z,65.59
2023-11-10T05:12:48.467Z,65.43
2023-11-10T05:17:55.911Z,65.66
2023-11-10T05:23:03.408Z,65.56
2023-11-10T05:28:10.682Z,65.50
2023-11-10T05:33:18.236Z,65.44
2023-11-10T05:38:25.763Z,65.43
2023-11-10T05:43:33.873Z,65.23
2023-11-10T05:48:41.865Z,65.35
2023-11-10T05:53:49.350Z,65.35
2023-11-10T05:58:56.897Z,65.07
2023-11-10T06:04:04.576Z,65.18
2023-11-10T06:09:12.517Z,65.08
2023-11-10T06:14:19.797Z,65.16
2023-11-10T06:19:27.676Z,65.05
2023-11-10T06:24:35.935Z,64.89
2023-11-10T06:29:43.575Z,64.88
2023-11-10T06:34:51.089Z,65.00
2023-11-10T06:39:58.598Z,65.01
2023-11-10T06:45:06.996Z,65.00
2023-11-10T06:50:14.886Z,64.90
2023-11-10T06:55:22.481Z,65.00
2023-11-10T07:00:30.966Z,64.94
2023-11-10T07:05:38.333Z,64.87
2023-11-10T07:10:46.600Z,64.90
2023-11-10T07:15:55.013Z,65.15
2023-11-10T07:21:03.117Z,65.26
2023-11-10T07:26:10.537Z,64.98
2023-11-10T07:31:18.143Z,65.15
2023-11-10T07:36:25.998Z,65.13
2023-11-10T07:41:33.509Z,65.03
2023-11-10T07:46:41.050Z,65.15
2023-11-10T07:51:48.375Z,65.21
2023-11-10T07:56:56.582Z,65.06
2023-11-10T08:02:04.398Z,65.23
2023-11-10T08:07:12.072Z,65.18
2023-11-10T08:12:19.409Z,65.40
2023-11-10T08:17:26.779Z,65.21
2023-11-10T08:22:33.990Z,65.25
2023-11-10T08:27:42.014Z,65.23
2023-11-10T08:32:49.544Z,65.16
2023-11-10T08:37:56.971Z,65.27
2023-11-10T08:43:04.450Z,65.20
2023-11-10T08:48:12.033Z,65.34
2023-11-10T08:53:19.282Z,65.20
2023-11-10T08:58:27.947Z,65.23
2023-11-10T09:03:35.431Z,65.01
2023-11-10T09:08:43.316Z,65.16
2023-11-10T09:13:52.685Z,65.19
2023-11-10T09:19:00.818Z,64.93
2023-11-10T09:24:08.760Z,65.24
2023-11-10T09:29:17.230Z,65.03
2023-11-10T09:34:26.155Z,64.91
2023-11-10T09:39:33.438Z,64.94
2023-11-10T09:44:42.667Z,64.97
2023-11-10T09:49:51.147Z,64.88
2023-11-10T09:54:59.126Z,64.81
2023-11-10T10:00:07.685Z,64.81
2023-11-10T10:05:14.982Z,64.60
2023-11-10T10:10:26.539Z,64.64
2023-11-10T10:15:34.950Z,64.74
2023-11-10T10:20:42.341Z,64.61
2023-11-10T10:25:49.656Z,64.33
2023-11-10T10:30:57.170Z,64.16
2023-11-10T10:36:05.139Z,64.04
2023-11-10T10:41:16.199Z,63.91
2023-11-10T10:46:24.489Z,63.95
2023-11-10T10:51:32.792Z,63.81
2023-11-10T10:56:45.285Z,63.61
2023-11-10T11:01:55.838Z,63.59
2023-11-10T11:07:34.986Z,63.36
2023-11-10T11:13:20.195Z,62.66
2023-11-10T11:18:50.563Z,62.76
2023-11-10T11:23:58.166Z,62.69
2023-11-10T11:29:11.075Z,62.77
2023-11-10T11:34:22.973Z,62.71
2023-11-10T11:39:31.424Z,62.38
2023-11-10T11:44:40.912Z,62.02
2023-11-10T11:49:48.164Z,62.17
2023-11-10T11:54:56.160Z,61.98
2023-11-10T12:00:10.661Z,61.83
2023-11-10T12:05:19.226Z,61.57
2023-11-10T12:10:26.466Z,61.33
2023-11-10T12:15:34.207Z,61.08
2023-11-10T12:20:42.552Z,61.05
2023-11-10T12:25:50.501Z,60.82
2023-11-10T12:30:57.871Z,60.60
2023-11-10T12:36:09.699Z,60.96
2023-11-10T12:41:17.084Z,60.80
2023-11-10T12:46:25.376Z,60.46
2023-11-10T12:51:34.867Z,60.54
2023-11-10T12:56:44.790Z,60.53
2023-11-10T13:01:52.415Z,60.50
2023-11-10T13:06:59.943Z,60.79
2023-11-10T13:12:10.221Z,61.01
2023-11-10T13:17:19.941Z,60.92
2023-11-10T13:22:27.414Z,61.01
2023-11-10T13:27:34.623Z,60.94
2023-11-10T13:32:41.872Z,60.70
2023-11-10T13:37:49.507Z,61.01
2023-11-10T13:42:56.975Z,60.77
2023-11-10T13:48:04.221Z,60.99
2023-11-10T13:53:11.635Z,60.86
2023-11-10T13:58:18.992Z,61.18
2023-11-10T14:03:26.324Z,60.98
2023-11-10T14:08:34.378Z,61.13
2023-11-10T14:13:41.886Z,61.01
2023-11-10T14:18:50.449Z,60.86
2023-11-10T14:23:58.143Z,61.26
2023-11-10T14:29:05.646Z,61.23
2023-11-10T14:34:14.866Z,61.21
2023-11-10T14:39:22.951Z,61.14
2023-11-10T14:44:30.483Z,61.28
2023-11-10T14:49:45.023Z,61.41
2023-11-10T14:54:52.612Z,61.41
2023-11-10T14:59:59.911Z,61.28
2023-11-10T15:05:09.156Z,61.49
2023-11-10T15:10:18.853Z,61.63
2023-11-10T15:15:26.287Z,61.57
2023-11-10T15:20:34.062Z,61.74
2023-11-10T15:25:41.285Z,61.83
2023-11-10T15:30:49.384Z,61.79
2023-11-10T15:35:56.747Z,61.80
2023-11-10T15:41:04.537Z,61.75
2023-11-10T15:46:12.404Z,61.99
2023-11-10T15:51:20.191Z,61.95
2023-11-10T15:56:27.377Z,61.93
2023-11-10T16:01:35.702Z,62.06
2023-11-10T16:06:43.441Z,62.44
2023-11-10T16:11:51.163Z,62.10
2023-11-10T16:16:58.526Z,62.35
2023-11-10T16:22:06.128Z,62.37
2023-11-10T16:27:13.858Z,62.19
2023-11-10T16:32:21.951Z,62.24
2023-11-10T16:37:29.324Z,62.58
2023-11-10T16:42:37.121Z,62.30
2023-11-10T16:47:44.341Z,62.35
2023-11-10T16:52:51.777Z,62.68
2023-11-10T16:57:59.064Z,62.76
2023-11-10T17:03:07.412Z,62.52
2023-11-10T17:08:14.832Z,62.70
2023-11-10T17:13:22.211Z,62.86
2023-11-10T17:18:29.440Z,62.92
2023-11-10T17:23:36.687Z,63.10
2023-11-10T17:28:44.023Z,62.91
2023-11-10T17:33:51.196Z,63.28
2023-11-10T17:38:58.587Z,63.15
2023-11-10T17:44:06.080Z,63.32
2023-11-10T17:49:13.536Z,63.15
2023-11-10T17:54:21.808Z,63.44
2023-11-10T17:59:29.446Z,63.41
2023-11-10T18:04:48.984Z,63.57
2023-11-10T18:10:00.375Z,63.68
2023-11-10T18:15:09.002Z,63.73
2023-11-10T18:20:17.184Z,63.79
2023-11-10T18:25:24.650Z,63.54
2023-11-10T18:30:32.165Z,63.68
2023-11-10T18:35:39.392Z,63.78
2023-11-10T18:40:46.930Z,64.03
2023-11-10T18:45:54.438Z,64.12
2023-11-10T18:51:02.927Z,63.97
2023-11-10T18:56:12.030Z,64.20
2023-11-10T19:01:19.279Z,64.33
2023-11-10T19:06:29.510Z,64.33
2023-11-10T19:11:38.913Z,64.22
2023-11-10T19:16:46.412Z,64.42
2023-11-10T19:21:54.550Z,64.42
2023-11-10T19:27:01.943Z,64.53
2023-11-10T19:32:10.816Z,64.50
2023-11-10T19:37:18.000Z,64.71
2023-11-10T19:42:25.489Z,64.47
2023-11-10T19:47:35.478Z,64.63
2023-11-10T19:52:42.718Z,64.75
2023-11-10T19:57:50.014Z,64.71
2023-11-10T20:02:57.769Z,64.60
2023-11-10T20:08:05.302Z,64.66
2023-11-10T20:13:12.883Z,64.65
2023-11-10T20:18:20.337Z,64.81
2023-11-10T20:23:27.490Z,64.95
2023-11-10T20:28:37.244Z,64.96
2023-11-10T20:33:44.834Z,64.81
2023-11-10T20:38:52.851Z,64.87
2023-11-10T20:44:00.353Z,65.05
2023-11-10T20:49:07.653Z,64.94
2023-11-10T20:54:15.039Z,64.94
2023-11-10T20:59:22.286Z,64.92
2023-11-10T21:04:29.907Z,64.99
2023-11-10T21:09:38.154Z,64.99
2023-11-10T21:14:45.726Z,64.82
2023-11-10T21:19:53.633Z,65.07
2023-11-10T21:25:00.962Z,64.98
2023-11-10T21:30:12.287Z,65.03
2023-11-10T21:35:27.419Z,65.09
2023-11-10T21:40:34.744Z,65.11
2023-11-10T21:45:43.842Z,65.19
2023-11-10T21:50:51.481Z,65.08
2023-11-10T21:55:58.756Z,65.22
2023-11-10T22:01:06.332Z,65.28
2023-11-10T22:06:14.070Z,65.31
2023-11-10T22:11:21.892Z,65.31
2023-11-10T22:16:29.477Z,65.37
2023-11-10T22:21:41.439Z,65.15
2023-11-10T22:26:48.765Z,65.30
2023-11-10T22:31:56.091Z,65.49
2023-11-10T22:37:04.702Z,65.51
2023-11-10T22:42:12.048Z,65.54
2023-11-10T22:47:19.416Z,65.61
2023-11-10T22:52:26.748Z,65.46
2023-11-10T22:57:33.970Z,65.54
2023-11-10T23:02:41.799Z,65.53
2023-11-10T23:07:49.007Z,65.60
2023-11-10T23:13:00.168Z,65.54
2023-11-10T23:18:10.820Z,65.39
2023-11-10T23:23:18.764Z,65.54
2023-11-10T23:28:25.997Z,65.69
2023-11-10T23:33:33.188Z,65.42
2023-11-10T23:38:40.458Z,65.55
2023-11-10T23:43:47.647Z,65.79
2023-11-10T23:48:56.973Z,65.65
2023-11-10T23:54:04.519Z,65.40
2023-11-10T23:59:12.449Z,65.52
